Time;durP1;ratioP1;P1;durP2;ratioP2;P2;SDS_P1;SDS_P2;PMS_P1;PMS_P2;Temp;Humidity;BMP_temperature;BMP_pressure;BME280_temperature;BME280_humidity;BME280_pressure;Samples;Min_cycle;Max_cycle;Signal;HPM_P1;HPM_P2
2022/09/06 00:00:11;;;;;;;37.08;6.40;;;;;;;14.81;100.00;99349.22;5012692;28;20179;-82
2022/09/06 00:02:40;;;;;;;34.45;4.82;;;;;;;14.78;100.00;99346.13;4992341;28;20026;-86
2022/09/06 00:05:08;;;;;;;42.55;5.25;;;;;;;14.76;100.00;99347.13;4988544;28;20105;-85
2022/09/06 00:07:34;;;;;;;33.33;5.20;;;;;;;14.79;100.00;99361.94;4995751;28;20481;-83
2022/09/06 00:10:00;;;;;;;33.63;6.07;;;;;;;14.81;100.00;99367.84;4957346;28;20113;-86
2022/09/06 00:12:26;;;;;;;32.72;5.55;;;;;;;14.80;100.00;99365.38;4984170;28;20030;-80
2022/09/06 00:14:52;;;;;;;30.27;5.32;;;;;;;14.81;100.00;99364.38;4960837;28;20624;-84
2022/09/06 00:17:18;;;;;;;42.67;5.95;;;;;;;14.83;100.00;99360.50;4989253;28;20034;-81
2022/09/06 00:19:44;;;;;;;34.47;5.40;;;;;;;14.87;100.00;99366.25;4991295;28;20030;-82
2022/09/06 00:22:10;;;;;;;39.53;6.50;;;;;;;14.86;100.00;99378.72;4993348;28;20039;-84
2022/09/06 00:24:38;;;;;;;40.80;6.75;;;;;;;14.91;100.00;99377.31;4974242;28;20092;-83
2022/09/06 00:27:05;;;;;;;36.58;6.10;;;;;;;14.92;100.00;99371.81;4989087;28;20041;-83
2022/09/06 00:29:31;;;;;;;46.55;7.03;;;;;;;14.93;100.00;99368.13;5010864;28;20045;-81
2022/09/06 00:31:58;;;;;;;40.22;6.45;;;;;;;14.95;100.00;99351.94;4998374;28;20030;-81
2022/09/06 00:34:24;;;;;;;38.53;5.63;;;;;;;14.97;100.00;99363.22;4978406;28;20037;-79
2022/09/06 00:36:50;;;;;;;44.90;6.65;;;;;;;14.95;100.00;99363.41;4926513;28;20126;-84
2022/09/06 00:39:16;;;;;;;37.40;6.25;;;;;;;14.95;100.00;99358.09;4981538;28;20026;-86
2022/09/06 00:41:42;;;;;;;51.35;7.50;;;;;;;15.00;100.00;99357.50;4981486;28;20030;-81
2022/09/06 00:44:08;;;;;;;49.65;6.50;;;;;;;15.02;100.00;99362.63;4983273;28;20401;-81
2022/09/06 00:46:35;;;;;;;31.02;4.50;;;;;;;15.00;100.00;99360.97;4986048;28;20045;-81
2022/09/06 00:49:11;;;;;;;33.53;5.55;;;;;;;15.04;100.00;99371.19;5019662;28;20038;-80
2022/09/06 00:51:37;;;;;;;40.50;6.65;;;;;;;15.05;100.00;99362.22;4989128;28;20915;-81
2022/09/06 00:54:05;;;;;;;33.88;5.63;;;;;;;15.09;100.00;99355.47;4994336;28;20031;-79
2022/09/06 00:56:34;;;;;;;36.90;6.93;;;;;;;15.09;100.00;99358.13;5003051;28;20403;-88
2022/09/06 00:59:00;;;;;;;35.38;6.03;;;;;;;15.10;100.00;99365.91;5020182;28;20117;-81
2022/09/06 01:01:27;;;;;;;27.67;5.28;;;;;;;15.13;100.00;99372.66;4999470;28;20516;-83
2022/09/06 01:03:53;;;;;;;36.45;6.18;;;;;;;15.11;100.00;99364.06;5007713;28;20500;-83
2022/09/06 01:06:19;;;;;;;25.15;5.07;;;;;;;15.09;100.00;99361.63;5013677;28;20392;-81
2022/09/06 01:09:10;;;;;;;33.03;5.35;;;;;;;15.06;100.00;99370.00;4997969;28;20050;-81
2022/09/06 01:11:38;;;;;;;43.35;5.82;;;;;;;15.05;100.00;99372.88;5005992;28;20033;-83
2022/09/06 01:14:35;;;;;;;30.13;6.07;;;;;;;15.04;100.00;99368.53;4982442;28;20196;-86
2022/09/06 01:17:05;;;;;;;;;;;;;;;14.92;100.00;99371.81;5004484;28;20415;-81
2022/09/06 01:20:00;;;;;;;25.75;4.93;;;;;;;14.98;100.00;99365.69;5000396;28;19957;-81
2022/09/06 01:22:50;;;;;;;31.95;4.88;;;;;;;14.99;100.00;99374.47;4947916;28;20049;-83
2022/09/06 01:25:34;;;;;;;27.90;5.25;;;;;;;14.97;100.00;99371.19;4987752;28;20052;-83
2022/09/06 01:28:28;;;;;;;22.77;4.32;;;;;;;14.97;100.00;99377.31;4857468;28;20504;-84
2022/09/06 01:31:40;;;;;;;33.38;5.60;;;;;;;14.91;100.00;99364.81;4971529;28;20030;-81
2022/09/06 01:34:06;;;;;;;23.83;4.22;;;;;;;14.95;100.00;99366.09;4986069;28;20038;-81
2022/09/06 01:36:38;;;;;;;28.52;4.63;;;;;;;14.93;100.00;99360.13;5017194;28;20041;-86
2022/09/06 01:39:04;;;;;;;22.55;3.92;;;;;;;14.94;100.00;99363.63;4974615;28;20113;-81
2022/09/06 01:41:31;;;;;;;26.45;5.65;;;;;;;14.90;100.00;99373.84;4948794;28;20384;-84
2022/09/06 01:43:58;;;;;;;31.63;3.95;;;;;;;14.87;100.00;99376.91;5005646;28;20070;-82
2022/09/06 01:46:44;;;;;;;22.77;4.00;;;;;;;14.85;100.00;99370.94;5009102;28;20038;-80
2022/09/06 01:49:18;;;;;;;25.10;3.55;;;;;;;14.81;100.00;99369.72;4980430;28;20030;-81
2022/09/06 01:52:11;;;;;;;24.10;3.78;;;;;;;14.80;100.00;99381.34;4992992;28;20511;-81
2022/09/06 01:54:56;;;;;;;21.73;3.97;;;;;;;14.73;100.00;99390.09;5019957;28;20034;-81
2022/09/06 01:57:51;;;;;;;21.20;3.90;;;;;;;14.72;100.00;99377.00;4974024;28;20045;-80
2022/09/06 02:00:19;;;;;;;28.58;3.80;;;;;;;14.71;100.00;99392.16;4947853;28;20050;-80
2022/09/06 02:03:04;;;;;;;23.48;4.13;;;;;;;14.72;100.00;99401.75;4990624;28;20129;-81
2022/09/06 02:05:30;;;;;;;23.60;3.90;;;;;;;14.71;100.00;99402.78;5013189;28;20031;-81
2022/09/06 02:08:02;;;;;;;24.30;3.78;;;;;;;14.73;100.00;99400.72;5006644;28;20104;-85
2022/09/06 02:10:42;;;;;;;26.02;3.92;;;;;;;14.76;100.00;99405.66;4985356;28;20031;-87
2022/09/06 02:13:10;;;;;;;25.65;4.57;;;;;;;14.74;100.00;99412.22;4969527;28;20085;-81
2022/09/06 02:15:41;;;;;;;21.15;4.03;;;;;;;14.74;100.00;99401.56;4961554;28;20043;-82
2022/09/06 02:18:22;;;;;;;24.88;3.25;;;;;;;14.72;100.00;99401.75;5002563;28;20040;-81
2022/09/06 02:20:51;;;;;;;20.83;3.53;;;;;;;14.71;100.00;99397.47;5004730;28;20387;-80
2022/09/06 02:23:22;;;;;;;20.15;4.13;;;;;;;14.69;100.00;99385.38;4973857;28;20044;-79
2022/09/06 02:26:23;;;;;;;24.17;3.75;;;;;;;14.62;100.00;99391.47;5003770;28;20070;-81
2022/09/06 02:28:49;;;;;;;15.95;3.08;;;;;;;14.57;100.00;99374.50;4973174;28;20050;-80
2022/09/06 02:31:30;;;;;;;24.15;3.58;;;;;;;14.51;100.00;99379.56;4981250;28;20065;-78
2022/09/06 02:33:56;;;;;;;22.20;3.85;;;;;;;14.46;100.00;99371.34;4994181;28;20129;-82
2022/09/06 02:36:22;;;;;;;19.60;3.15;;;;;;;14.41;100.00;99362.34;4986689;28;20022;-80
2022/09/06 02:38:48;;;;;;;27.88;3.35;;;;;;;14.40;100.00;99358.84;4993723;28;20472;-80
2022/09/06 02:41:21;;;;;;;17.88;3.20;;;;;;;14.42;100.00;99366.63;4982165;28;20026;-79
2022/09/06 02:43:47;;;;;;;20.15;2.78;;;;;;;14.40;100.00;99361.50;4994714;28;20401;-79
2022/09/06 02:46:13;;;;;;;18.85;3.65;;;;;;;14.42;100.00;99366.63;4988582;28;20038;-79
2022/09/06 02:48:39;;;;;;;15.65;2.80;;;;;;;14.47;100.00;99369.53;5021022;28;20488;-79
2022/09/06 02:51:06;;;;;;;15.95;3.80;;;;;;;14.49;100.00;99378.94;4971325;28;20046;-80
2022/09/06 02:53:32;;;;;;;38.65;5.45;;;;;;;14.54;100.00;99365.03;4979771;28;20030;-79
2022/09/06 02:55:58;;;;;;;29.58;4.63;;;;;;;14.58;100.00;99371.63;5031542;28;20033;-78
2022/09/06 02:58:25;;;;;;;34.13;4.68;;;;;;;14.66;100.00;99359.16;4994908;28;20049;-79
2022/09/06 03:00:51;;;;;;;37.22;5.95;;;;;;;14.69;100.00;99359.59;4991802;28;20079;-78
2022/09/06 03:03:19;;;;;;;39.00;5.32;;;;;;;14.72;100.00;99356.53;5014199;28;20065;-79
2022/09/06 03:05:47;;;;;;;37.13;6.13;;;;;;;14.73;100.00;99360.84;4970605;28;20311;-81
2022/09/06 03:08:13;;;;;;;40.88;6.10;;;;;;;14.71;100.00;99354.91;4987709;28;20046;-79
2022/09/06 03:10:39;;;;;;;36.65;5.88;;;;;;;14.70;100.00;99345.28;5009763;28;20039;-79
2022/09/06 03:13:04;;;;;;;37.45;6.38;;;;;;;14.69;100.00;99346.31;4988506;28;20046;-79
2022/09/06 03:15:30;;;;;;;39.17;5.38;;;;;;;14.67;100.00;99347.53;4970821;28;20030;-79
2022/09/06 03:17:58;;;;;;;40.63;7.35;;;;;;;14.69;100.00;99337.50;4988765;28;20035;-80
2022/09/06 03:20:24;;;;;;;31.88;4.95;;;;;;;14.68;100.00;99338.53;4985015;28;20041;-78
2022/09/06 03:22:50;;;;;;;36.33;5.78;;;;;;;14.68;100.00;99334.03;5017465;28;20182;-79
2022/09/06 03:25:16;;;;;;;40.25;5.90;;;;;;;14.68;100.00;99343.84;4982335;28;20031;-79
2022/09/06 03:27:42;;;;;;;40.63;5.25;;;;;;;14.73;100.00;99344.09;5010687;28;20092;-79
2022/09/06 03:30:09;;;;;;;42.95;6.65;;;;;;;14.73;100.00;99344.88;4977640;28;20038;-79
2022/09/06 03:32:35;;;;;;;35.00;5.45;;;;;;;14.74;100.00;99349.19;5004147;28;20544;-78
2022/09/06 03:35:01;;;;;;;44.22;6.95;;;;;;;14.73;100.00;99336.91;5013407;28;20133;-79
2022/09/06 03:37:27;;;;;;;33.67;5.30;;;;;;;14.78;100.00;99335.50;4963238;28;20528;-79
2022/09/06 03:39:52;;;;;;;34.85;5.22;;;;;;;14.78;100.00;99340.81;4999953;28;20093;-79
2022/09/06 03:42:18;;;;;;;41.60;6.35;;;;;;;14.79;100.00;99345.09;4986162;28;20416;-81
2022/09/06 03:44:44;;;;;;;39.78;6.20;;;;;;;14.81;100.00;99343.91;4965825;28;20101;-80
2022/09/06 03:47:10;;;;;;;33.40;6.03;;;;;;;14.78;100.00;99335.50;4976714;28;20038;-80
2022/09/06 03:49:36;;;;;;;37.75;5.65;;;;;;;14.78;100.00;99333.63;5022034;28;20050;-78
2022/09/06 03:52:01;;;;;;;33.88;5.78;;;;;;;14.76;100.00;99333.84;4970011;28;20042;-78
2022/09/06 03:54:27;;;;;;;49.83;6.25;;;;;;;14.77;100.00;99340.00;4969812;28;20440;-77
2022/09/06 03:56:54;;;;;;;36.10;5.35;;;;;;;14.81;100.00;99337.78;4972736;28;20035;-78
2022/09/06 03:59:20;;;;;;;36.90;5.78;;;;;;;14.83;100.00;99333.06;5023536;28;20069;-78
2022/09/06 04:01:45;;;;;;;33.42;5.60;;;;;;;14.80;100.00;99334.31;5005036;28;20031;-79
2022/09/06 04:04:11;;;;;;;35.55;5.75;;;;;;;14.76;100.00;99328.53;4971944;28;20038;-81
2022/09/06 04:06:37;;;;;;;37.28;5.85;;;;;;;14.74;100.00;99332.41;4975741;28;20039;-79
2022/09/06 04:09:03;;;;;;;44.88;5.50;;;;;;;14.74;100.00;99335.06;4977791;28;20050;-79
2022/09/06 04:11:28;;;;;;;35.53;6.70;;;;;;;14.74;100.00;99330.56;4978240;28;20030;-79
2022/09/06 04:13:54;;;;;;;47.38;6.22;;;;;;;14.73;100.00;99322.81;4988255;28;20035;-80
2022/09/06 04:16:20;;;;;;;30.27;5.25;;;;;;;14.73;100.00;99325.47;4996206;28;20117;-79
2022/09/06 04:18:46;;;;;;;39.67;6.10;;;;;;;14.74;100.00;99321.78;5002373;28;20034;-78
2022/09/06 04:21:12;;;;;;;35.38;5.63;;;;;;;14.73;100.00;99322.81;4987407;28;20043;-79
2022/09/06 04:23:37;;;;;;;32.10;4.80;;;;;;;14.71;100.00;99322.16;4975441;28;20085;-80
2022/09/06 04:26:03;;;;;;;42.42;6.82;;;;;;;14.71;100.00;99325.66;4964891;28;20039;-79
2022/09/06 04:28:29;;;;;;;29.90;5.53;;;;;;;14.70;100.00;99320.53;4957396;28;20074;-80
2022/09/06 04:31:00;;;;;;;32.95;5.57;;;;;;;14.68;100.00;99317.25;5014760;28;20122;-80
2022/09/06 04:33:28;;;;;;;42.75;6.28;;;;;;;14.66;100.00;99319.28;4980590;28;20418;-79
2022/09/06 04:35:59;;;;;;;33.22;5.35;;;;;;;14.63;100.00;99307.22;4986877;28;20080;-79
2022/09/06 04:38:27;;;;;;;38.35;5.65;;;;;;;14.60;100.00;99311.09;4990319;28;20131;-79
2022/09/06 04:40:56;;;;;;;29.40;5.75;;;;;;;14.58;100.00;99317.63;4979880;28;20039;-79
2022/09/06 04:43:22;;;;;;;37.70;5.95;;;;;;;14.59;100.00;99327.22;5010410;28;20065;-79
2022/09/06 04:45:48;;;;;;;39.25;5.97;;;;;;;14.60;100.00;99320.91;5021857;28;20089;-79
2022/09/06 04:48:14;;;;;;;40.50;6.50;;;;;;;14.64;100.00;99328.28;4955219;28;20046;-78
2022/09/06 04:50:40;;;;;;;44.00;6.03;;;;;;;14.67;100.00;99323.59;5004508;28;20037;-80
2022/09/06 04:53:06;;;;;;;32.58;5.75;;;;;;;14.66;100.00;99316.63;4985517;28;20393;-79
2022/09/06 04:55:33;;;;;;;37.42;6.47;;;;;;;14.68;100.00;99318.09;4981534;28;20069;-79
2022/09/06 04:57:59;;;;;;;33.30;5.63;;;;;;;14.69;100.00;99318.88;4979439;28;20039;-78
2022/09/06 05:00:31;;;;;;;37.10;4.82;;;;;;;14.69;100.00;99314.38;4986215;28;20062;-84
2022/09/06 05:02:57;;;;;;;30.90;4.85;;;;;;;14.68;100.00;99322.56;5015717;28;20694;-80
2022/09/06 05:05:23;;;;;;;33.13;5.00;;;;;;;14.68;100.00;99317.25;5016817;28;20057;-79
2022/09/06 05:07:53;;;;;;;36.47;5.13;;;;;;;14.72;100.00;99324.63;4991791;28;20081;-79
2022/09/06 05:10:19;;;;;;;38.03;6.25;;;;;;;14.69;100.00;99321.53;4983449;28;20560;-79
2022/09/06 05:12:50;;;;;;;34.67;5.45;;;;;;;14.72;100.00;99319.31;5001110;28;20034;-78
2022/09/06 05:15:17;;;;;;;32.70;5.88;;;;;;;14.74;100.00;99321.78;5020697;28;20038;-78
2022/09/06 05:17:43;;;;;;;37.33;5.60;;;;;;;14.74;100.00;99325.25;4985544;28;20045;-78
2022/09/06 05:20:10;;;;;;;34.75;5.25;;;;;;;14.78;100.00;99324.84;4996992;28;20308;-79
2022/09/06 05:22:37;;;;;;;35.63;4.95;;;;;;;14.77;100.00;99329.34;4999725;28;20121;-79
2022/09/06 05:25:02;;;;;;;36.78;6.00;;;;;;;14.73;100.00;99318.28;4979188;28;20027;-79
2022/09/06 05:27:28;;;;;;;27.80;4.53;;;;;;;14.72;100.00;99321.13;4983372;28;20165;-77
2022/09/06 05:29:54;;;;;;;30.52;5.10;;;;;;;14.71;100.00;99323.00;4975708;28;20096;-79
2022/09/06 05:32:20;;;;;;;29.55;4.78;;;;;;;14.71;100.00;99325.66;5002307;28;20027;-79
2022/09/06 05:34:45;;;;;;;36.63;5.18;;;;;;;14.71;100.00;99325.66;5002207;28;20034;-80
2022/09/06 05:37:11;;;;;;;26.70;4.57;;;;;;;14.70;100.00;99333.84;4963912;28;20053;-80
2022/09/06 05:39:37;;;;;;;30.38;4.43;;;;;;;14.69;100.00;99332.19;4983841;28;20039;-80
2022/09/06 05:42:05;;;;;;;16.42;3.67;;;;;;;14.67;100.00;99335.03;5004790;28;20076;-84
2022/09/06 05:44:37;;;;;;;26.23;4.22;;;;;;;14.66;100.00;99340.56;4964841;28;20030;-80
2022/09/06 05:47:03;;;;;;;26.48;3.63;;;;;;;14.63;100.00;99334.63;4999336;28;20034;-79
2022/09/06 05:49:30;;;;;;;28.27;3.75;;;;;;;14.64;100.00;99332.78;4972738;28;20114;-79
2022/09/06 05:51:56;;;;;;;24.45;3.45;;;;;;;14.64;100.00;99332.78;5002495;28;20038;-80
2022/09/06 05:54:22;;;;;;;25.00;4.68;;;;;;;14.63;100.00;99321.34;4957495;28;20414;-79
2022/09/06 05:56:48;;;;;;;26.63;3.85;;;;;;;14.63;100.00;99324.00;4984247;28;20042;-78
2022/09/06 05:59:14;;;;;;;25.73;4.22;;;;;;;14.63;100.00;99320.50;5005759;28;20043;-80
2022/09/06 06:01:51;;;;;;;27.20;4.57;;;;;;;14.66;100.00;99325.44;4977338;28;20034;-79
2022/09/06 06:04:17;;;;;;;24.27;3.58;;;;;;;14.64;100.00;99322.97;4980803;28;20090;-82
2022/09/06 06:06:45;;;;;;;24.40;3.42;;;;;;;14.62;100.00;99324.19;4967304;28;20427;-78
2022/09/06 06:09:10;;;;;;;22.95;4.05;;;;;;;14.64;100.00;99322.13;4970741;28;20146;-78
2022/09/06 06:11:36;;;;;;;26.80;4.18;;;;;;;14.67;100.00;99315.63;4983031;28;20105;-79
2022/09/06 06:14:03;;;;;;;30.30;4.72;;;;;;;14.66;100.00;99322.78;5009697;28;20054;-79
2022/09/06 06:16:29;;;;;;;17.95;3.17;;;;;;;14.63;100.00;99315.19;4997767;28;20065;-79
2022/09/06 06:18:55;;;;;;;27.00;4.88;;;;;;;14.62;100.00;99313.56;4997015;28;20070;-81
2022/09/06 06:21:26;;;;;;;35.90;5.45;;;;;;;14.63;100.00;99313.38;4969475;28;20030;-80
2022/09/06 06:24:03;;;;;;;28.25;5.10;;;;;;;14.63;100.00;99318.69;5006702;28;20042;-79
2022/09/06 06:26:32;;;;;;;31.73;4.55;;;;;;;14.66;100.00;99316.63;4996191;28;20037;-79
2022/09/06 06:29:00;;;;;;;33.10;4.88;;;;;;;14.65;100.00;99313.16;5019929;28;20081;-79
2022/09/06 06:31:31;;;;;;;28.05;4.38;;;;;;;14.66;100.00;99314.78;4981556;28;20092;-86
2022/09/06 06:33:57;;;;;;;29.50;4.05;;;;;;;14.66;100.00;99317.44;4985768;28;20049;-79
2022/09/06 06:36:25;;;;;;;22.67;4.30;;;;;;;14.66;100.00;99314.78;4973879;28;20049;-80
2022/09/06 06:38:54;;;;;;;27.23;4.63;;;;;;;14.66;100.00;99312.13;4989360;28;20034;-81
2022/09/06 06:41:24;;;;;;;32.05;4.30;;;;;;;14.67;100.00;99299.66;5006952;28;20065;-80
2022/09/06 06:43:55;;;;;;;25.55;3.83;;;;;;;14.66;100.00;99296.19;4983036;28;20088;-79
2022/09/06 06:46:24;;;;;;;30.55;4.30;;;;;;;14.65;100.00;99294.53;4986013;28;20374;-80
2022/09/06 06:48:50;;;;;;;25.83;3.85;;;;;;;14.64;100.00;99295.53;5002082;28;20030;-80
2022/09/06 06:51:18;;;;;;;27.25;4.32;;;;;;;14.67;100.00;99305.78;4972372;28;20041;-81
2022/09/06 06:53:48;;;;;;;26.38;3.75;;;;;;;14.69;100.00;99305.59;4996943;28;20109;-81
2022/09/06 06:56:29;;;;;;;25.50;4.60;;;;;;;14.69;100.00;99309.06;4979411;28;20065;-84
2022/09/06 06:58:57;;;;;;;31.08;4.80;;;;;;;14.68;100.00;99310.09;4992034;28;20034;-80
2022/09/06 07:01:24;;;;;;;22.08;4.10;;;;;;;14.68;100.00;99301.28;4996381;28;20038;-79
2022/09/06 07:03:51;;;;;;;28.60;4.45;;;;;;;14.67;100.00;99300.47;4969378;28;20030;-80
2022/09/06 07:06:18;;;;;;;27.73;4.40;;;;;;;14.66;100.00;99298.84;4998114;28;20031;-79
2022/09/06 07:08:45;;;;;;;23.15;3.95;;;;;;;14.67;100.00;99299.66;4979248;28;20166;-80
2022/09/06 07:11:12;;;;;;;31.25;3.92;;;;;;;14.69;100.00;99292.28;4985449;28;20149;-81
2022/09/06 07:13:38;;;;;;;21.75;4.10;;;;;;;14.67;100.00;99295.16;4959625;28;20524;-81
2022/09/06 07:16:14;;;;;;;28.52;3.65;;;;;;;14.70;100.00;99294.75;4996137;28;20395;-80
2022/09/06 07:18:41;;;;;;;23.27;3.90;;;;;;;14.67;100.00;99295.16;4990496;28;20030;-80
2022/09/06 07:21:09;;;;;;;23.65;3.53;;;;;;;14.68;100.00;99301.28;4970647;28;20038;-81
2022/09/06 07:23:34;;;;;;;35.13;4.45;;;;;;;14.68;100.00;99291.47;4998304;28;20489;-80
2022/09/06 07:26:00;;;;;;;20.40;4.47;;;;;;;14.70;100.00;99302.72;4973798;28;20046;-86
2022/09/06 07:28:26;;;;;;;24.80;3.80;;;;;;;14.68;100.00;99307.44;5020182;28;20029;-80
2022/09/06 07:30:54;;;;;;;22.05;3.72;;;;;;;14.72;100.00;99302.53;4997805;28;20034;-80
2022/09/06 07:33:20;;;;;;;26.33;3.58;;;;;;;14.71;100.00;99304.38;4991551;28;20088;-79
2022/09/06 07:35:58;;;;;;;29.55;4.70;;;;;;;14.73;100.00;99304.97;5003406;28;20038;-80
2022/09/06 07:38:23;;;;;;;24.20;3.97;;;;;;;14.77;100.00;99308.06;4986639;28;20049;-80
2022/09/06 07:40:54;;;;;;;26.45;3.60;;;;;;;14.79;100.00;99313.19;4974522;28;20042;-80
2022/09/06 07:43:20;;;;;;;27.25;3.67;;;;;;;14.77;100.00;99305.41;5016212;28;20035;-84
2022/09/06 07:45:46;;;;;;;28.38;4.75;;;;;;;14.75;100.00;99304.78;4978305;28;20041;-87
2022/09/06 07:48:12;;;;;;;22.52;3.67;;;;;;;14.75;100.00;99299.47;4985318;28;20034;-85
2022/09/06 07:50:37;;;;;;;25.83;3.83;;;;;;;14.78;100.00;99298.25;4971402;28;20101;-87
2022/09/06 07:53:08;;;;;;;20.90;3.78;;;;;;;14.81;100.00;99300.56;5007857;28;20022;-81
2022/09/06 07:55:34;;;;;;;26.25;3.97;;;;;;;14.81;100.00;99295.22;4998253;28;20034;-83
2022/09/06 07:57:59;;;;;;;30.48;4.18;;;;;;;14.85;100.00;99299.94;4994232;28;20049;-85
2022/09/06 08:00:26;;;;;;;30.70;5.00;;;;;;;14.86;100.00;99300.75;5008083;28;20044;-80
2022/09/06 08:02:51;;;;;;;30.33;4.70;;;;;;;14.91;100.00;99297.50;5001871;28;20489;-82
2022/09/06 08:05:17;;;;;;;28.23;4.40;;;;;;;14.91;100.00;99303.63;4989277;28;20046;-83
2022/09/06 08:07:43;;;;;;;30.63;4.30;;;;;;;14.92;100.00;99305.28;4975468;28;20130;-85
2022/09/06 08:10:09;;;;;;;20.45;3.50;;;;;;;14.97;100.00;99302.81;5003939;28;20034;-84
2022/09/06 08:12:34;;;;;;;29.75;4.68;;;;;;;15.03;100.00;99298.56;4984095;28;20087;-85
2022/09/06 08:15:00;;;;;;;31.45;3.95;;;;;;;15.09;100.00;99296.91;5007614;28;20034;-81
2022/09/06 08:17:26;;;;;;;29.52;4.10;;;;;;;15.09;100.00;99296.91;4971273;28;20042;-85
2022/09/06 08:19:52;;;;;;;24.02;4.80;;;;;;;15.14;100.00;99297.13;5016635;28;20046;-84
2022/09/06 08:22:18;;;;;;;25.70;3.60;;;;;;;15.15;100.00;99293.44;4991529;28;20066;-82
2022/09/06 08:24:43;;;;;;;23.95;4.40;;;;;;;15.13;100.00;99283.00;4974931;28;20034;-82
2022/09/06 08:27:10;;;;;;;35.25;5.72;;;;;;;15.14;100.00;99283.81;4984851;28;20112;-84
2022/09/06 08:29:35;;;;;;;29.98;5.53;;;;;;;15.12;100.00;99289.34;5007806;28;20481;-82
2022/09/06 08:32:01;;;;;;;26.95;3.38;;;;;;;15.12;100.00;99291.19;5016358;28;20038;-82
2022/09/06 08:34:27;;;;;;;13.73;2.65;;;;;;;15.07;100.00;99291.78;4978649;28;20038;-86
2022/09/06 08:36:53;;;;;;;18.42;2.80;;;;;;;15.04;100.00;99296.69;4975896;28;20121;-84
2022/09/06 08:39:18;;;;;;;18.30;2.80;;;;;;;15.00;100.00;99293.63;5000959;28;20056;-84
2022/09/06 08:42:13;;;;;;;14.30;2.30;;;;;;;14.97;100.00;99289.53;4990915;28;20539;-83
2022/09/06 08:44:43;;;;;;;15.93;2.72;;;;;;;15.01;100.00;99287.28;4951241;28;20389;-83
2022/09/06 08:47:15;;;;;;;22.77;3.65;;;;;;;15.02;100.00;99294.22;4973603;28;20085;-82
2022/09/06 08:49:45;;;;;;;21.83;2.70;;;;;;;15.07;100.00;99293.63;4983256;28;20038;-84
2022/09/06 08:52:35;;;;;;;17.73;2.60;;;;;;;15.11;100.00;99284.22;4956059;28;20121;-81
2022/09/06 08:55:26;;;;;;;14.77;2.60;;;;;;;15.14;100.00;99283.81;4986572;28;20149;-85
2022/09/06 08:58:16;;;;;;;20.98;2.90;;;;;;;15.16;100.00;99281.75;4973767;28;20046;-85
2022/09/06 09:00:57;;;;;;;17.50;2.72;;;;;;;15.22;100.00;99275.66;4957980;28;20070;-84
2022/09/06 09:03:33;;;;;;;16.90;2.42;;;;;;;15.27;100.00;99279.53;4974711;28;20039;-79
2022/09/06 09:06:02;;;;;;;18.00;2.67;;;;;;;15.28;100.00;99274.00;5002494;28;20493;-82
2022/09/06 09:08:57;;;;;;;13.65;2.40;;;;;;;15.23;100.00;99269.28;4996282;28;20109;-82
2022/09/06 09:11:24;;;;;;;17.27;3.08;;;;;;;15.31;100.00;99275.41;5003861;28;20046;-84
2022/09/06 09:14:05;;;;;;;18.52;3.38;;;;;;;15.35;100.00;99280.13;4981457;28;20030;-81
2022/09/06 09:16:31;;;;;;;15.38;2.50;;;;;;;15.36;100.00;99286.28;4970852;28;20405;-81
2022/09/06 09:19:01;;;;;;;15.93;2.60;;;;;;;15.44;100.00;99293.25;4976116;28;20039;-83
2022/09/06 09:21:30;;;;;;;15.45;2.58;;;;;;;15.48;100.00;99287.31;5000678;28;20034;-85
2022/09/06 09:24:00;;;;;;;20.20;2.42;;;;;;;15.54;100.00;99299.00;5002979;28;20030;-83
2022/09/06 09:26:35;;;;;;;13.90;2.60;;;;;;;15.60;100.00;99295.50;4981988;28;20034;-84
2022/09/06 09:29:04;;;;;;;17.37;2.80;;;;;;;15.65;100.00;99299.38;4982724;28;20112;-85
2022/09/06 09:31:56;;;;;;;15.57;2.85;;;;;;;15.64;100.00;99293.22;4980269;28;20031;-84
2022/09/06 09:34:32;;;;;;;14.32;2.05;;;;;;;15.64;100.00;99301.22;4979996;28;20042;-86
2022/09/06 09:37:19;;;;;;;12.07;1.98;;;;;;;15.63;100.00;99297.75;4995358;28;20034;-85
2022/09/06 09:39:46;;;;;;;20.85;2.78;;;;;;;15.60;100.00;99302.66;5003049;28;20120;-86
2022/09/06 09:42:22;;;;;;;9.93;1.92;;;;;;;15.58;100.00;99300.22;4948448;28;20035;-86
2022/09/06 09:44:48;;;;;;;14.07;1.60;;;;;;;15.54;100.00;99301.66;4975144;28;20472;-83
2022/09/06 09:47:28;;;;;;;14.52;2.42;;;;;;;15.53;100.00;99292.00;4983043;28;20124;-82
2022/09/06 09:49:55;;;;;;;9.00;1.60;;;;;;;15.48;100.00;99300.63;4967560;28;20069;-81
2022/09/06 09:52:26;;;;;;;11.27;2.10;;;;;;;15.53;100.00;99283.22;4986617;28;20030;-80
2022/09/06 09:54:56;;;;;;;12.32;2.35;;;;;;;15.61;100.00;99296.31;4985781;28;20070;-82
2022/09/06 09:57:22;;;;;;;12.65;2.35;;;;;;;15.70;100.00;99288.94;4955822;28;20460;-82
2022/09/06 10:00:01;;;;;;;9.20;1.75;;;;;;;15.80;100.00;99288.53;4987035;28;20523;-88
2022/09/06 10:02:37;;;;;;;11.73;2.15;;;;;;;15.89;100.00;99287.28;4987717;28;20030;-83
2022/09/06 10:05:12;;;;;;;16.88;1.83;;;;;;;15.95;100.00;99283.78;4983982;28;20038;-79
2022/09/06 10:07:54;;;;;;;19.33;4.22;;;;;;;16.02;100.00;99285.63;4990752;28;20069;-81
2022/09/06 10:10:32;;;;;;;15.32;2.40;;;;;;;15.98;100.00;99279.91;4956171;28;20073;-82
2022/09/06 10:13:07;;;;;;;8.40;1.20;;;;;;;15.99;100.00;99279.69;4979616;28;20089;-81
2022/09/06 10:15:39;;;;;;;6.88;1.27;;;;;;;15.94;100.00;99276.00;4971457;28;20046;-86
2022/09/06 10:18:05;;;;;;;5.78;0.98;;;;;;;16.02;100.00;99264.31;5014069;28;20034;-84
2022/09/06 10:20:41;;;;;;;6.22;0.73;;;;;;;16.10;100.00;99272.88;4986074;28;20042;-86
2022/09/06 10:23:21;;;;;;;8.60;2.20;;;;;;;16.18;100.00;99255.03;4970650;28;20484;-84
2022/09/06 10:26:04;;;;;;;5.90;1.05;;;;;;;16.18;100.00;99245.16;5011924;28;20037;-82
2022/09/06 10:28:33;;;;;;;5.78;1.60;;;;;;;16.19;99.79;99243.34;4983742;28;20440;-80
2022/09/06 10:31:16;;;;;;;8.00;1.30;;;;;;;16.26;100.00;99249.44;4959295;28;20504;-85
2022/09/06 10:33:51;;;;;;;7.22;1.27;;;;;;;16.22;99.02;99243.75;4920538;28;20030;-80
2022/09/06 10:36:24;;;;;;;6.05;0.88;;;;;;;16.18;97.83;99237.19;4960894;28;20037;-87
2022/09/06 10:38:59;;;;;;;8.10;1.13;;;;;;;16.18;97.42;99245.16;4996230;28;20038;-83
2022/09/06 10:41:47;;;;;;;8.45;1.40;;;;;;;16.19;97.72;99235.34;5016396;28;20160;-82
2022/09/06 10:44:18;;;;;;;7.72;1.30;;;;;;;16.23;98.04;99231.22;4987772;28;20118;-82
2022/09/06 10:46:45;;;;;;;5.07;1.00;;;;;;;16.24;97.97;99231.00;4983473;28;20611;-79
2022/09/06 10:49:16;;;;;;;11.25;1.40;;;;;;;16.32;97.62;99218.47;4978965;28;20109;-79
2022/09/06 10:51:51;;;;;;;10.85;1.55;;;;;;;16.29;96.80;99225.06;4983913;28;20026;-82
2022/09/06 10:54:21;;;;;;;15.27;2.20;;;;;;;16.22;96.79;99219.75;4989213;28;20039;-79
2022/09/06 10:57:07;;;;;;;8.10;1.77;;;;;;;16.21;95.56;99225.28;4982177;28;20054;-80
2022/09/06 10:59:40;;;;;;;13.15;2.45;;;;;;;16.18;95.83;99218.50;4976181;28;20039;-79
2022/09/06 11:02:34;;;;;;;11.18;1.70;;;;;;;16.12;96.23;99211.38;4980837;28;21252;-79
2022/09/06 11:05:06;;;;;;;13.23;2.45;;;;;;;16.18;96.58;99212.38;4961319;28;20033;-81
2022/09/06 11:07:36;;;;;;;12.80;2.33;;;;;;;16.25;96.09;99199.84;4958005;28;20074;-78
2022/09/06 11:10:19;;;;;;;15.02;2.63;;;;;;;16.33;95.75;99207.59;4986068;28;20056;-80
2022/09/06 11:13:20;;;;;;;14.93;3.05;;;;;;;16.31;94.23;99204.31;4971801;28;20158;-82
2022/09/06 11:16:09;;;;;;;12.02;1.80;;;;;;;16.19;94.76;99198.00;4989856;28;20034;-83
2022/09/06 11:18:54;;;;;;;13.05;2.08;;;;;;;16.29;95.13;99209.06;4980350;28;20076;-81
2022/09/06 11:21:41;;;;;;;12.63;1.75;;;;;;;16.29;95.82;99189.56;4971008;28;20034;-79
2022/09/06 11:24:13;;;;;;;17.08;2.95;;;;;;;16.29;96.64;99195.72;4964056;28;20102;-82
2022/09/06 11:26:54;;;;;;;15.00;2.45;;;;;;;16.35;95.83;99192.19;4985756;28;20065;-79
2022/09/06 11:29:23;;;;;;;12.98;1.85;;;;;;;16.33;95.68;99196.09;4990661;28;20491;-82
2022/09/06 11:32:00;;;;;;;12.77;2.50;;;;;;;16.36;95.77;99198.34;5000185;28;20034;-79
2022/09/06 11:34:34;;;;;;;11.70;2.13;;;;;;;16.40;95.72;99202.22;4973388;28;20026;-83